Time;durP1;ratioP1;P1;durP2;ratioP2;P2;SDS_P1;SDS_P2;PMS_P1;PMS_P2;Temp;Humidity;BMP_temperature;BMP_pressure;BME280_temperature;BME280_humidity;BME280_pressure;Samples;Min_cycle;Max_cycle;Signal;HPM_P1;HPM_P2
2023/04/30 00:01:53;;;;;;;4.93;2.37;;;;;;;4.97;100.00;101637.34;6052399;28;20037;-71
2023/04/30 00:04:49;;;;;;;4.60;2.00;;;;;;;4.82;100.00;101634.66;6051069;28;20033;-69
2023/04/30 00:07:45;;;;;;;9.55;2.50;;;;;;;4.54;100.00;101634.50;6062989;28;20029;-69
2023/04/30 00:10:40;;;;;;;7.93;2.13;;;;;;;4.42;100.00;101640.44;6074404;28;20032;-69
2023/04/30 00:13:35;;;;;;;4.63;1.90;;;;;;;4.70;100.00;101645.03;6051183;28;20034;-70
2023/04/30 00:16:31;;;;;;;6.70;2.20;;;;;;;4.52;100.00;101633.75;6052088;28;20353;-71
2023/04/30 00:19:26;;;;;;;12.60;2.83;;;;;;;4.92;100.00;101639.41;6051571;28;20080;-71
2023/04/30 00:22:21;;;;;;;3.90;1.90;;;;;;;4.72;100.00;101644.00;6051988;28;20038;-72
2023/04/30 00:25:17;;;;;;;5.40;1.90;;;;;;;4.86;100.00;101626.59;6051201;28;20428;-69
2023/04/30 00:28:12;;;;;;;4.80;1.77;;;;;;;4.70;100.00;101656.34;6050123;28;20029;-69
2023/04/30 00:31:08;;;;;;;7.30;2.03;;;;;;;4.94;100.00;101645.41;6051842;28;20061;-70
2023/04/30 00:34:03;;;;;;;4.75;1.63;;;;;;;4.83;100.00;101640.75;6050747;28;20030;-69
2023/04/30 00:36:58;;;;;;;6.87;2.30;;;;;;;5.07;100.00;101638.50;6051665;28;20374;-69
2023/04/30 00:39:54;;;;;;;6.37;2.10;;;;;;;5.13;100.00;101638.16;6051460;28;20061;-69
2023/04/30 00:42:51;;;;;;;8.83;2.57;;;;;;;4.99;100.00;101669.66;6051101;28;20040;-70
2023/04/30 00:45:46;;;;;;;6.03;1.80;;;;;;;4.81;100.00;101648.72;6050680;28;20025;-70
2023/04/30 00:48:41;;;;;;;4.90;1.77;;;;;;;4.99;100.00;101659.13;6051002;28;20040;-70
2023/04/30 00:51:40;;;;;;;3.30;1.73;;;;;;;4.89;100.00;101650.09;6051398;28;20033;-70
2023/04/30 00:54:36;;;;;;;6.70;2.08;;;;;;;5.21;100.00;101651.72;6050200;28;20264;-69
2023/04/30 00:57:32;;;;;;;5.38;1.83;;;;;;;4.73;100.00;101661.44;6050747;28;20068;-69
2023/04/30 01:00:27;;;;;;;4.88;1.80;;;;;;;4.30;100.00;101656.00;6066197;28;20037;-70
2023/04/30 01:03:23;;;;;;;6.00;1.65;;;;;;;4.13;100.00;101670.88;6073968;28;20025;-70
2023/04/30 01:06:18;;;;;;;7.72;1.90;;;;;;;4.56;100.00;101684.31;6074861;28;20033;-70
2023/04/30 01:09:13;;;;;;;6.60;2.10;;;;;;;4.35;100.00;101670.56;6074517;28;20025;-70
2023/04/30 01:12:21;;;;;;;7.73;2.10;;;;;;;4.07;100.00;101693.97;6073400;28;20357;-70
2023/04/30 01:15:22;;;;;;;7.85;2.08;;;;;;;3.93;100.00;101709.59;6054747;28;20038;-70
2023/04/30 01:18:26;;;;;;;5.30;2.10;;;;;;;3.73;100.00;101688.78;6050471;28;20543;-71
2023/04/30 01:21:21;;;;;;;7.80;2.20;;;;;;;3.69;100.00;101701.22;6049498;28;20037;-70
2023/04/30 01:24:37;;;;;;;5.13;2.30;;;;;;;3.54;100.00;101702.81;6045073;28;20022;-70
2023/04/30 01:28:01;;;;;;;4.53;2.20;;;;;;;3.61;100.00;101693.72;6048955;28;20048;-70
2023/04/30 01:30:57;;;;;;;10.40;2.38;;;;;;;3.75;100.00;101690.38;6050208;28;20412;-70
2023/04/30 01:33:52;;;;;;;3.72;2.20;;;;;;;3.74;100.00;101695.72;6049252;28;20117;-70
2023/04/30 01:36:51;;;;;;;5.70;1.93;;;;;;;3.72;100.00;101708.06;6050116;28;20036;-70
2023/04/30 01:40:13;;;;;;;6.38;2.35;;;;;;;3.47;100.00;101705.84;6049884;28;20456;-70
2023/04/30 01:43:31;;;;;;;6.18;1.88;;;;;;;3.10;100.00;101712.00;6050059;28;20116;-71
2023/04/30 01:46:30;;;;;;;5.07;1.63;;;;;;;3.07;100.00;101703.47;6048398;28;20030;-70
2023/04/30 01:49:55;;;;;;;5.15;1.88;;;;;;;3.10;100.00;101712.00;6050145;28;20037;-70
2023/04/30 01:52:52;;;;;;;8.27;1.92;;;;;;;3.23;100.00;101697.41;6049862;28;20083;-71
2023/04/30 01:56:02;;;;;;;8.52;2.55;;;;;;;3.22;100.00;101711.44;6036829;28;20438;-70
2023/04/30 01:58:58;;;;;;;5.57;2.05;;;;;;;3.28;100.00;101703.28;6084678;28;20025;-71
2023/04/30 02:01:55;;;;;;;8.95;2.17;;;;;;;3.29;100.00;101718.06;6070983;28;20030;-70
2023/04/30 02:04:50;;;;;;;7.65;2.05;;;;;;;3.05;100.00;101737.59;6048719;28;20025;-69
2023/04/30 02:07:48;;;;;;;4.22;2.22;;;;;;;3.06;100.00;101715.72;6049683;28;20075;-70
2023/04/30 02:10:43;;;;;;;5.70;2.38;;;;;;;3.01;100.00;101738.69;6050077;28;20026;-70
2023/04/30 02:13:38;;;;;;;5.60;2.10;;;;;;;2.98;100.00;101718.72;6049209;28;20029;-70
2023/04/30 02:16:34;;;;;;;6.82;2.05;;;;;;;3.48;100.00;101724.09;6049605;28;20029;-70
2023/04/30 02:19:29;;;;;;;4.53;1.80;;;;;;;3.33;100.00;101730.09;6049260;28;20028;-70
2023/04/30 02:22:25;;;;;;;6.40;1.87;;;;;;;2.94;100.00;101716.28;6051429;28;20476;-70
2023/04/30 02:25:20;;;;;;;4.95;2.05;;;;;;;3.02;100.00;101737.72;6065353;28;20037;-71
2023/04/30 02:28:15;;;;;;;7.97;2.40;;;;;;;2.68;100.00;101721.91;6064364;28;20045;-70
2023/04/30 02:31:10;;;;;;;4.73;2.03;;;;;;;2.51;100.00;101721.81;6049644;28;20022;-70
2023/04/30 02:34:06;;;;;;;3.80;1.73;;;;;;;2.96;100.00;101725.78;6049107;28;20034;-70
2023/04/30 02:37:02;;;;;;;8.30;2.20;;;;;;;3.85;100.00;101733.59;6048759;28;20612;-69
2023/04/30 02:39:57;;;;;;;7.43;2.20;;;;;;;4.47;100.00;101721.59;6049617;28;20041;-71
2023/04/30 02:42:53;;;;;;;4.97;1.97;;;;;;;4.48;100.00;101732.03;6049422;28;20025;-70
2023/04/30 02:45:49;;;;;;;9.10;2.83;;;;;;;4.45;100.00;101716.44;6048930;28;20436;-70
2023/04/30 02:48:44;;;;;;;8.63;2.20;;;;;;;4.65;100.00;101716.19;6048568;28;20062;-72
2023/04/30 02:51:39;;;;;;;14.17;3.60;;;;;;;4.66;100.00;101725.75;6048451;28;20284;-72
2023/04/30 02:54:35;;;;;;;5.20;2.20;;;;;;;4.30;100.00;101725.09;6044096;28;20493;-71
2023/04/30 02:57:30;;;;;;;4.38;2.00;;;;;;;3.81;99.99;101736.44;6059787;28;20037;-71
2023/04/30 03:00:26;;;;;;;7.87;2.00;;;;;;;3.56;100.00;101748.16;6073086;28;20030;-72
2023/04/30 03:03:21;;;;;;;4.82;2.08;;;;;;;3.55;100.00;101738.63;6067005;28;20034;-71
2023/04/30 03:06:16;;;;;;;7.47;2.07;;;;;;;3.58;100.00;101742.84;6048293;28;20053;-72
2023/04/30 03:09:11;;;;;;;4.70;1.60;;;;;;;3.17;100.00;101728.31;6049190;28;20029;-71
2023/04/30 03:12:07;;;;;;;10.90;1.97;;;;;;;2.71;100.00;101750.56;6048898;28;20029;-71
2023/04/30 03:15:02;;;;;;;6.37;1.60;;;;;;;2.42;100.00;101757.97;6048163;28;20096;-71
2023/04/30 03:17:58;;;;;;;6.97;2.25;;;;;;;2.24;100.00;101760.56;6050657;28;20351;-71
2023/04/30 03:20:53;;;;;;;5.47;2.20;;;;;;;1.99;100.00;101733.75;6053128;28;20041;-72
2023/04/30 03:23:48;;;;;;;8.35;1.95;;;;;;;2.13;100.00;101752.31;6052246;28;20076;-72
2023/04/30 03:26:44;;;;;;;6.90;2.30;;;;;;;2.52;100.00;101760.19;6053105;28;20029;-72
2023/04/30 03:29:40;;;;;;;7.38;2.30;;;;;;;2.64;100.00;101759.63;6053186;28;20022;-71
2023/04/30 03:32:35;;;;;;;6.30;2.53;;;;;;;2.63;100.00;101750.94;6053200;28;20026;-72
2023/04/30 03:35:31;;;;;;;4.87;1.90;;;;;;;3.18;100.00;101757.03;6051993;28;20030;-71
2023/04/30 03:38:26;;;;;;;14.43;2.67;;;;;;;3.04;100.00;101756.88;6052796;28;20037;-71
2023/04/30 03:41:23;;;;;;;6.90;2.30;;;;;;;3.07;100.00;101771.59;6052836;28;20472;-71
2023/04/30 03:44:18;;;;;;;5.13;1.67;;;;;;;2.76;100.00;101770.41;6052179;28;20036;-72
2023/04/30 03:47:14;;;;;;;5.03;1.80;;;;;;;2.58;100.00;101754.69;6052827;28;20033;-72
2023/04/30 03:50:09;;;;;;;4.93;1.98;;;;;;;2.57;100.00;101771.28;6052416;28;20057;-72
2023/04/30 03:53:05;;;;;;;3.42;1.90;;;;;;;2.24;100.00;101760.56;6052683;28;20068;-71
2023/04/30 03:56:00;;;;;;;9.32;2.25;;;;;;;2.13;100.00;101770.63;6051340;28;20034;-72
2023/04/30 03:58:55;;;;;;;5.93;1.97;;;;;;;1.91;100.00;101770.72;6052227;28;20717;-72
2023/04/30 04:01:51;;;;;;;8.30;2.60;;;;;;;1.87;100.00;101781.38;6062464;28;20260;-72
2023/04/30 04:04:46;;;;;;;5.70;2.53;;;;;;;1.78;100.00;101773.00;6059326;28;20687;-72
2023/04/30 04:07:42;;;;;;;8.95;2.90;;;;;;;1.92;100.00;101775.03;6050572;28;20068;-71
2023/04/30 04:10:38;;;;;;;10.97;2.70;;;;;;;1.70;100.00;101774.22;6051900;28;20041;-73
2023/04/30 04:13:33;;;;;;;6.07;2.50;;;;;;;1.70;100.00;101779.47;6051165;28;20017;-72
2023/04/30 04:16:28;;;;;;;8.37;2.63;;;;;;;1.58;100.00;101779.94;6052188;28;20037;-72
2023/04/30 04:19:23;;;;;;;8.17;2.53;;;;;;;1.57;100.00;101786.09;6051449;28;20026;-70
2023/04/30 04:22:19;;;;;;;6.33;2.83;;;;;;;1.79;100.00;101810.47;6066056;28;20083;-71
2023/04/30 04:25:14;;;;;;;5.63;2.55;;;;;;;1.84;100.00;101787.59;6069668;28;20249;-71
2023/04/30 04:28:10;;;;;;;6.13;2.60;;;;;;;2.13;100.00;101815.97;6075189;28;20034;-72
2023/04/30 04:31:05;;;;;;;7.80;2.47;;;;;;;2.17;100.00;101809.69;6051852;28;20034;-71
2023/04/30 04:34:03;;;;;;;6.97;2.97;;;;;;;2.09;100.00;101800.47;6050282;28;20026;-71
2023/04/30 04:36:58;;;;;;;8.88;2.38;;;;;;;2.26;100.00;101819.75;6051706;28;20443;-72
2023/04/30 04:39:53;;;;;;;7.27;3.00;;;;;;;2.37;100.00;101804.44;6051208;28;20057;-71
2023/04/30 04:42:50;;;;;;;7.77;2.63;;;;;;;2.59;100.00;101814.81;6051494;28;20026;-71
2023/04/30 04:45:46;;;;;;;9.38;2.75;;;;;;;2.82;100.00;101813.78;6050165;28;20058;-72
2023/04/30 04:48:42;;;;;;;6.55;2.80;;;;;;;3.41;100.00;101822.34;6050827;28;20025;-71
2023/04/30 04:51:38;;;;;;;7.07;2.63;;;;;;;3.79;100.00;101825.72;6051034;28;20456;-70
2023/04/30 04:54:33;;;;;;;5.22;2.85;;;;;;;4.15;100.00;101830.91;6050276;28;20041;-71
2023/04/30 04:57:29;;;;;;;5.23;2.93;;;;;;;4.67;100.00;101829.88;6050923;28;20061;-72
2023/04/30 05:00:24;;;;;;;8.30;2.70;;;;;;;4.80;100.00;101832.75;6050785;28;20025;-73
2023/04/30 05:03:20;;;;;;;8.43;2.33;;;;;;;4.98;100.00;101823.84;6049859;28;20099;-72
2023/04/30 05:06:15;;;;;;;5.47;1.87;;;;;;;5.02;100.00;101845.56;6051138;28;20081;-72
2023/04/30 05:09:10;;;;;;;6.97;2.10;;;;;;;5.30;100.00;101824.72;6050573;28;20037;-71
2023/04/30 05:12:05;;;;;;;4.33;2.00;;;;;;;5.43;100.00;101810.78;6050765;28;20026;-72
2023/04/30 05:15:01;;;;;;;3.40;1.87;;;;;;;5.72;100.00;101827.56;6049893;28;20712;-70
2023/04/30 05:17:56;;;;;;;7.40;2.25;;;;;;;6.07;100.00;101819.44;6050611;28;20045;-71
2023/04/30 05:20:51;;;;;;;9.27;2.27;;;;;;;6.30;97.56;101826.84;6050903;28;20045;-71
2023/04/30 05:23:47;;;;;;;6.13;2.40;;;;;;;6.78;95.17;101837.06;6048293;28;20026;-72
2023/04/30 05:26:42;;;;;;;8.33;2.07;;;;;;;7.41;93.79;101826.91;6061096;28;20033;-71
2023/04/30 05:29:38;;;;;;;5.13;1.63;;;;;;;8.19;87.77;101831.38;6052637;28;20296;-72
2023/04/30 05:32:33;;;;;;;6.03;1.90;;;;;;;8.42;87.52;101843.06;6050028;28;20384;-72
2023/04/30 05:35:29;;;;;;;6.83;2.13;;;;;;;8.63;83.57;101838.09;6049066;28;20044;-72
2023/04/30 05:38:24;;;;;;;8.88;2.13;;;;;;;8.87;79.02;101860.19;6068784;28;20060;-72
2023/04/30 05:41:20;;;;;;;5.90;1.77;;;;;;;9.24;78.13;101848.69;6060071;28;20025;-72
2023/04/30 05:44:15;;;;;;;5.20;1.75;;;;;;;9.73;77.51;101856.56;6071759;28;20026;-72
2023/04/30 05:47:11;;;;;;;7.87;2.00;;;;;;;9.23;73.87;101847.03;6050306;28;20030;-72
2023/04/30 05:50:07;;;;;;;8.60;2.07;;;;;;;9.54;73.75;101846.47;6050148;28;20470;-73
2023/04/30 05:53:02;;;;;;;3.63;1.67;;;;;;;11.20;68.08;101837.28;6049218;28;20057;-71
2023/04/30 05:55:57;;;;;;;7.57;2.60;;;;;;;9.83;69.98;101862.06;6049424;28;20036;-72
2023/04/30 05:58:53;;;;;;;6.63;2.40;;;;;;;9.96;72.08;101857.53;6048324;28;20026;-72
2023/04/30 06:01:48;;;;;;;8.17;2.23;;;;;;;10.16;68.67;101849.00;6049953;28;20048;-72
2023/04/30 06:04:43;;;;;;;9.50;2.00;;;;;;;10.37;69.57;101862.41;6048781;28;20493;-72
2023/04/30 06:07:38;;;;;;;10.50;2.07;;;;;;;9.54;68.23;101856.22;6049832;28;20031;-72
2023/04/30 06:10:34;;;;;;;6.13;1.93;;;;;;;9.22;65.59;101839.16;6049804;28;20029;-71
2023/04/30 06:13:31;;;;;;;6.20;2.08;;;;;;;9.12;65.78;101859.31;6048208;28;20104;-71
2023/04/30 06:16:26;;;;;;;8.35;1.80;;;;;;;8.25;68.91;101867.94;6051252;28;20033;-71
2023/04/30 06:19:21;;;;;;;8.20;1.98;;;;;;;8.37;66.96;101864.50;6049213;28;20038;-71
2023/04/30 06:22:17;;;;;;;9.80;1.77;;;;;;;8.58;66.86;101874.56;6049113;28;20030;-71
2023/04/30 06:25:12;;;;;;;6.80;1.97;;;;;;;8.32;69.39;101874.53;6048864;28;20038;-71
2023/04/30 06:28:08;;;;;;;12.57;2.20;;;;;;;8.44;71.95;101869.38;6048586;28;20042;-71
2023/04/30 06:31:04;;;;;;;5.28;1.50;;;;;;;9.27;64.31;101880.25;6049649;28;20108;-71
2023/04/30 06:33:59;;;;;;;7.33;1.90;;;;;;;9.37;61.96;101864.56;6048800;28;20026;-73
2023/04/30 06:36:55;;;;;;;12.70;2.50;;;;;;;9.31;61.85;101863.19;6049003;28;20038;-71
2023/04/30 06:39:50;;;;;;;7.85;1.90;;;;;;;8.98;61.98;101861.13;6049545;28;20029;-71
2023/04/30 06:42:45;;;;;;;6.53;1.97;;;;;;;8.60;64.40;101873.53;6048602;28;20038;-70
2023/04/30 06:45:41;;;;;;;8.87;2.20;;;;;;;8.75;61.97;101867.16;6048675;28;20394;-71
2023/04/30 06:48:36;;;;;;;13.37;2.43;;;;;;;8.56;63.00;101869.38;6049831;28;20319;-71
2023/04/30 06:51:31;;;;;;;7.53;1.53;;;;;;;8.62;65.07;101881.34;6058247;28;20044;-71
2023/04/30 06:54:27;;;;;;;3.90;1.53;;;;;;;9.21;63.76;101878.06;6075987;28;20038;-71
2023/04/30 06:57:23;;;;;;;4.53;2.37;;;;;;;9.34;60.82;101868.28;6053457;28;20045;-71
2023/04/30 07:00:19;;;;;;;5.22;2.10;;;;;;;8.91;63.48;101856.38;6053514;28;20413;-72
2023/04/30 07:03:14;;;;;;;11.07;2.20;;;;;;;8.43;64.30;101865.88;6054779;28;20026;-69
2023/04/30 07:06:09;;;;;;;6.57;1.83;;;;;;;9.07;61.28;101862.28;6067967;28;20113;-70
2023/04/30 07:09:05;;;;;;;8.20;1.92;;;;;;;9.29;60.53;101878.34;6056469;28;20018;-71
2023/04/30 07:12:00;;;;;;;6.10;1.80;;;;;;;8.94;61.49;101861.47;6051805;28;20037;-70
2023/04/30 07:14:55;;;;;;;7.05;1.70;;;;;;;9.07;59.77;101866.72;6059644;28;20276;-70
2023/04/30 07:17:51;;;;;;;10.00;2.10;;;;;;;8.87;60.72;101876.91;6072281;28;20034;-70
2023/04/30 07:20:46;;;;;;;8.30;2.45;;;;;;;9.02;61.62;101868.88;6053124;28;20355;-71
2023/04/30 07:23:42;;;;;;;8.07;1.93;;;;;;;9.11;61.69;101869.03;6052423;28;20038;-70
2023/04/30 07:26:38;;;;;;;7.18;1.98;;;;;;;9.11;60.39;101879.63;6053162;28;20025;-71
2023/04/30 07:29:34;;;;;;;8.77;2.67;;;;;;;9.01;61.05;101890.97;6053154;28;20045;-70
2023/04/30 07:32:30;;;;;;;7.60;2.38;;;;;;;9.54;60.78;101880.06;6052790;28;20388;-70
2023/04/30 07:35:25;;;;;;;6.53;1.55;;;;;;;9.87;59.28;101887.34;6051958;28;20042;-70
2023/04/30 07:38:20;;;;;;;5.00;1.57;;;;;;;9.98;58.85;101875.00;6052535;28;20076;-70
2023/04/30 07:41:16;;;;;;;6.83;1.70;;;;;;;9.61;57.83;101876.03;6052620;28;20343;-70
2023/04/30 07:44:11;;;;;;;6.37;2.00;;;;;;;9.84;58.69;101879.63;6051429;28;20376;-70
2023/04/30 07:47:06;;;;;;;8.80;1.92;;;;;;;9.80;58.92;101880.81;6047752;28;20277;-71
2023/04/30 07:50:02;;;;;;;5.57;1.60;;;;;;;9.41;58.47;101872.16;6052475;28;20034;-71
2023/04/30 07:52:57;;;;;;;10.77;2.38;;;;;;;9.40;59.50;101886.34;6051530;28;20071;-70
2023/04/30 07:55:53;;;;;;;7.90;1.90;;;;;;;9.73;59.66;101888.34;6051840;28;20034;-70
2023/04/30 07:58:48;;;;;;;6.53;1.83;;;;;;;9.82;58.82;101877.09;6051979;28;20036;-70
2023/04/30 08:01:45;;;;;;;5.67;1.90;;;;;;;10.09;58.41;101890.13;6052306;28;20041;-70
2023/04/30 08:04:40;;;;;;;8.27;1.63;;;;;;;10.27;56.86;101875.53;6057245;28;20108;-71
2023/04/30 08:07:35;;;;;;;7.77;2.30;;;;;;;10.57;55.53;101891.75;6057013;28;20045;-71
2023/04/30 08:10:30;;;;;;;7.50;1.63;;;;;;;10.66;54.19;101868.97;6051550;28;20041;-71
2023/04/30 08:13:26;;;;;;;7.93;1.80;;;;;;;10.31;55.18;101871.69;6053285;28;20405;-71
2023/04/30 08:16:21;;;;;;;6.73;2.03;;;;;;;10.51;54.64;101886.09;6057937;28;20025;-71
2023/04/30 08:19:16;;;;;;;4.53;1.73;;;;;;;10.09;54.89;101890.13;6051589;28;20033;-70
2023/04/30 08:22:12;;;;;;;6.97;1.70;;;;;;;10.33;55.83;101864.44;6066456;28;20388;-71
2023/04/30 08:25:09;;;;;;;9.63;2.27;;;;;;;10.61;53.86;101866.69;6065738;28;20029;-71
2023/04/30 08:28:05;;;;;;;7.25;1.63;;;;;;;10.50;54.15;101884.38;6056994;28;20096;-71
2023/04/30 08:31:00;;;;;;;3.50;1.70;;;;;;;10.87;53.64;101882.41;6051131;28;20106;-71
2023/04/30 08:33:56;;;;;;;8.15;2.47;;;;;;;11.15;52.82;101866.84;6051112;28;20080;-70
2023/04/30 08:36:51;;;;;;;5.93;1.80;;;;;;;11.03;52.64;101877.59;6051153;28;20034;-71
2023/04/30 08:39:46;;;;;;;4.27;1.83;;;;;;;11.12;53.44;101876.84;6049715;28;20033;-71
2023/04/30 08:42:47;;;;;;;9.57;2.07;;;;;;;11.17;53.14;101874.72;6073581;28;20025;-70
2023/04/30 08:45:43;;;;;;;4.10;2.13;;;;;;;10.99;52.93;101868.19;6056928;28;20137;-71
2023/04/30 08:48:38;;;;;;;6.57;1.60;;;;;;;11.41;52.72;101850.66;6051585;28;20038;-71
2023/04/30 08:51:34;;;;;;;7.90;2.03;;;;;;;11.48;50.26;101855.34;6047675;28;20041;-70
2023/04/30 08:54:31;;;;;;;5.80;1.90;;;;;;;11.39;49.66;101871.19;6049078;28;20475;-70
2023/04/30 08:57:26;;;;;;;9.20;1.90;;;;;;;11.04;51.13;101858.03;6051400;28;20089;-70
2023/04/30 09:00:22;;;;;;;6.10;1.70;;;;;;;11.08;51.79;101865.66;6050761;28;20065;-71
2023/04/30 09:03:17;;;;;;;6.83;1.57;;;;;;;11.15;50.50;101864.19;6050185;28;20030;-71
2023/04/30 09:06:16;;;;;;;7.10;2.13;;;;;;;11.58;50.37;101852.78;6050734;28;20065;-71
2023/04/30 09:09:15;;;;;;;8.90;2.22;;;;;;;11.75;50.95;101853.13;6050950;28;20036;-72
2023/04/30 09:12:16;;;;;;;9.00;1.95;;;;;;;11.82;50.25;101864.94;6051116;28;20030;-71
2023/04/30 09:15:12;;;;;;;5.35;1.65;;;;;;;11.56;50.76;101860.03;6049466;28;20065;-71
2023/04/30 09:18:16;;;;;;;6.60;1.52;;;;;;;11.24;48.99;101854.66;6071555;28;20032;-71
2023/04/30 09:21:12;;;;;;;7.13;1.90;;;;;;;11.86;49.42;101847.78;6072607;28;20026;-71
2023/04/30 09:24:07;;;;;;;7.13;2.63;;;;;;;11.55;50.06;101851.22;6049523;28;20030;-70
2023/04/30 09:27:15;;;;;;;9.73;2.00;;;;;;;11.50;51.64;101857.88;6050478;28;20768;-71
2023/04/30 09:30:29;;;;;;;5.90;2.25;;;;;;;11.97;50.25;101869.97;6050321;28;20113;-72
2023/04/30 09:33:24;;;;;;;7.80;1.65;;;;;;;12.10;48.48;101849.38;6049505;28;20054;-71
2023/04/30 09:36:20;;;;;;;5.60;1.40;;;;;;;12.59;47.72;101851.38;6050471;28;20487;-73
2023/04/30 09:39:17;;;;;;;7.23;1.77;;;;;;;12.68;44.74;101851.47;6050376;28;20034;-71
2023/04/30 09:42:12;;;;;;;5.72;1.70;;;;;;;12.85;45.35;101866.84;6049796;28;20244;-71
2023/04/30 09:45:10;;;;;;;5.07;2.00;;;;;;;12.95;45.32;101862.41;6048964;28;20049;-70
2023/04/30 09:48:07;;;;;;;6.28;1.90;;;;;;;13.04;45.57;101852.75;6049584;28;20021;-70
2023/04/30 09:51:02;;;;;;;5.95;1.77;;;;;;;12.77;44.54;101840.03;6049954;28;20028;-70
2023/04/30 09:54:01;;;;;;;6.03;2.27;;;;;;;12.83;44.43;101854.59;6049087;28;20025;-70
2023/04/30 09:56:58;;;;;;;7.63;1.65;;;;;;;13.32;44.10;101859.19;6048351;28;20616;-70
2023/04/30 09:59:53;;;;;;;5.22;1.75;;;;;;;13.16;45.50;101846.38;6065091;28;20087;-72
2023/04/30 10:02:49;;;;;;;8.27;1.83;;;;;;;13.20;45.57;101846.97;6056717;28;20037;-70
2023/04/30 10:05:47;;;;;;;5.95;1.95;;;;;;;13.31;44.19;101838.88;6059299;28;20037;-72
2023/04/30 10:08:47;;;;;;;4.32;1.60;;;;;;;13.33;44.81;101853.75;6070238;28;20033;-72
2023/04/30 10:11:42;;;;;;;4.43;1.83;;;;;;;12.89;44.59;101843.44;6061059;28;20131;-71
2023/04/30 10:14:38;;;;;;;7.57;1.98;;;;;;;12.97;45.49;101844.47;6049084;28;20465;-72
2023/04/30 10:17:39;;;;;;;6.25;1.90;;;;;;;13.43;45.32;101837.75;6049454;28;20038;-71
2023/04/30 10:20:38;;;;;;;7.57;1.90;;;;;;;13.45;44.41;101819.84;6047731;28;20037;-72
2023/04/30 10:23:33;;;;;;;5.03;1.95;;;;;;;13.76;42.24;101825.88;6048888;28;20467;-71
2023/04/30 10:26:29;;;;;;;5.32;2.00;;;;;;;13.68;43.07;101811.44;6048926;28;20552;-72
2023/04/30 10:29:24;;;;;;;8.93;1.83;;;;;;;13.67;42.58;101827.56;6054455;28;20034;-71
2023/04/30 10:32:20;;;;;;;4.47;1.60;;;;;;;13.91;42.62;101829.84;6059391;28;20041;-71
2023/04/30 10:35:19;;;;;;;5.47;1.85;;;;;;;14.21;42.59;101819.84;6051901;28;20307;-71
2023/04/30 10:38:20;;;;;;;8.13;2.17;;;;;;;13.65;44.68;101805.53;6047373;28;20358;-72
2023/04/30 10:41:18;;;;;;;6.95;1.70;;;;;;;13.99;42.16;101804.16;6048913;28;20566;-72
2023/04/30 10:44:15;;;;;;;7.63;1.98;;;;;;;12.92;43.98;101821.88;6048478;28;20022;-72
2023/04/30 10:47:10;;;;;;;7.45;2.00;;;;;;;13.13;44.17;101819.19;6044300;28;20097;-73
2023/04/30 10:50:10;;;;;;;7.82;1.65;;;;;;;13.25;43.22;101807.44;6060943;28;20039;-72
2023/04/30 10:53:06;;;;;;;6.03;2.40;;;;;;;13.39;42.64;101809.72;6072838;28;20376;-72
2023/04/30 10:56:07;;;;;;;6.32;1.83;;;;;;;13.82;43.21;101785.34;6047792;28;20022;-72
2023/04/30 10:59:03;;;;;;;5.55;1.55;;;;;;;13.85;42.96;101785.91;6049147;28;20497;-72
2023/04/30 11:02:00;;;;;;;6.05;2.28;;;;;;;13.76;41.70;101789.41;6056592;28;20056;-72
2023/04/30 11:05:10;;;;;;;6.95;2.28;;;;;;;14.10;41.60;101780.00;6055816;28;20453;-72
2023/04/30 11:08:10;;;;;;;8.05;2.20;;;;;;;13.37;42.83;101777.06;6048514;28;20028;-72
2023/04/30 11:11:07;;;;;;;6.07;2.15;;;;;;;13.02;42.08;101761.50;6049154;28;20029;-72
2023/04/30 11:14:03;;;;;;;4.35;1.75;;;;;;;13.35;42.46;101768.34;6048027;28;20038;-72
2023/04/30 11:17:00;;;;;;;7.33;1.80;;;;;;;13.97;40.58;101768.75;6048010;28;20050;-72
2023/04/30 11:19:59;;;;;;;6.72;1.98;;;;;;;14.30;40.68;101764.78;6048477;28;20026;-72
2023/04/30 11:23:08;;;;;;;4.82;1.90;;;;;;;14.82;37.75;101752.69;6048329;28;20083;-72
2023/04/30 11:26:03;;;;;;;6.75;1.73;;;;;;;14.73;38.32;101761.59;6048215;28;20033;-72
2023/04/30 11:28:59;;;;;;;6.28;1.80;;;;;;;14.88;38.78;101760.13;6049121;28;20026;-72
2023/04/30 11:31:55;;;;;;;7.22;1.73;;;;;;;14.85;38.72;101752.41;6047779;28;20072;-72
2023/04/30 11:34:50;;;;;;;9.25;1.70;;;;;;;14.43;38.37;101760.00;6047299;28;20413;-73
2023/04/30 11:37:47;;;;;;;4.07;1.60;;;;;;;14.65;40.00;101753.44;6048663;28;20038;-72
2023/04/30 11:40:42;;;;;;;7.40;2.00;;;;;;;14.22;38.85;101754.00;6053161;28;20384;-73
2023/04/30 11:43:37;;;;;;;4.60;1.73;;;;;;;14.76;39.05;101762.13;6059249;28;20155;-73
2023/04/30 11:46:33;;;;;;;4.83;1.77;;;;;;;14.93;39.01;101755.16;6079284;28;20041;-72
2023/04/30 11:49:28;;;;;;;5.87;2.30;;;;;;;15.02;38.91;101756.94;6052663;28;20022;-72
2023/04/30 11:52:24;;;;;;;9.83;1.60;;;;;;;15.08;38.78;101751.03;6052590;28;20281;-72
2023/04/30 11:55:21;;;;;;;3.90;1.95;;;;;;;15.34;39.10;101730.59;6051459;28;20619;-72
2023/04/30 11:58:18;;;;;;;5.50;1.85;;;;;;;15.65;38.03;101743.59;6052484;28;20369;-72
2023/04/30 12:01:13;;;;;;;4.57;1.80;;;;;;;15.70;37.17;101730.59;6052511;28;20042;-73
2023/04/30 12:04:09;;;;;;;5.65;2.10;;;;;;;15.41;36.07;101742.34;6050278;28;20381;-72
2023/04/30 12:07:07;;;;;;;4.73;1.90;;;;;;;15.64;37.20;101742.75;6050883;28;20041;-73
2023/04/30 12:10:02;;;;;;;8.18;1.75;;;;;;;15.86;35.22;101736.09;6050957;28;20029;-72
2023/04/30 12:12:58;;;;;;;5.65;1.80;;;;;;;16.04;37.24;101734.22;6052353;28;20029;-72
2023/04/30 12:15:58;;;;;;;3.97;1.50;;;;;;;16.43;34.09;101718.56;6051342;28;20358;-72
2023/04/30 12:18:54;;;;;;;5.35;1.88;;;;;;;15.59;33.94;101728.16;6051789;28;20030;-72
2023/04/30 12:21:49;;;;;;;8.55;1.98;;;;;;;15.01;36.75;101736.56;6053497;28;20026;-72
2023/04/30 12:24:45;;;;;;;5.75;2.20;;;;;;;15.66;36.10;101734.56;6069320;28;20429;-73
2023/04/30 12:27:41;;;;;;;6.53;1.77;;;;;;;15.28;35.22;101733.84;6063423;28;20103;-71
2023/04/30 12:30:37;;;;;;;6.43;1.75;;;;;;;15.41;35.88;101731.63;6074342;28;20091;-71
2023/04/30 12:33:32;;;;;;;7.60;2.17;;;;;;;15.37;35.59;101724.09;6063472;28;20042;-72
2023/04/30 12:36:31;;;;;;;5.63;2.20;;;;;;;16.02;34.92;101720.16;6072317;28;20037;-72
2023/04/30 12:39:32;;;;;;;4.38;1.48;;;;;;;15.95;34.04;101738.66;6057810;28;20093;-72
2023/04/30 12:42:34;;;;;;;6.95;1.70;;;;;;;16.47;34.13;101719.94;6051335;28;20083;-71
2023/04/30 12:45:46;;;;;;;9.25;2.00;;;;;;;16.87;33.61;101713.94;6050735;28;20033;-72
2023/04/30 12:48:46;;;;;;;9.73;1.98;;;;;;;15.75;33.89;101712.25;6050858;28;20073;-71
2023/04/30 12:51:41;;;;;;;5.10;1.83;;;;;;;16.43;35.47;101713.22;6055039;28;20633;-72
2023/04/30 12:54:37;;;;;;;4.55;1.90;;;;;;;16.79;33.50;101703.22;6074594;28;20029;-72
2023/04/30 12:57:33;;;;;;;4.75;1.88;;;;;;;16.98;33.39;101717.19;6075038;28;20448;-72
2023/04/30 13:00:28;;;;;;;6.00;1.95;;;;;;;17.05;33.25;101696.75;6075206;28;20387;-73
2023/04/30 13:03:23;;;;;;;6.50;1.97;;;;;;;16.76;32.47;101692.81;6074179;28;20022;-72
2023/04/30 13:06:20;;;;;;;3.53;1.43;;;;;;;16.86;33.18;101690.81;6065113;28;20381;-72
2023/04/30 13:09:16;;;;;;;4.47;1.77;;;;;;;16.40;32.37;101690.28;6051029;28;21081;-71
2023/04/30 13:12:11;;;;;;;7.53;1.80;;;;;;;16.86;32.16;101701.53;6050905;28;20084;-72
2023/04/30 13:15:07;;;;;;;7.70;1.97;;;;;;;16.39;32.11;101701.97;6050380;28;20022;-72
2023/04/30 13:18:02;;;;;;;5.43;1.88;;;;;;;16.90;31.26;101685.00;6055944;28;20025;-72
2023/04/30 13:20:57;;;;;;;5.80;1.60;;;;;;;16.35;31.43;101695.28;6055267;28;20030;-72
2023/04/30 13:23:53;;;;;;;2.50;1.30;;;;;;;16.92;30.30;101683.00;6057521;28;20029;-72
2023/04/30 13:26:48;;;;;;;5.47;1.90;;;;;;;17.53;30.33;101687.97;6050695;28;20040;-72
2023/04/30 13:29:44;;;;;;;5.20;1.63;;;;;;;16.49;31.07;101692.00;6050944;28;20038;-72
2023/04/30 13:32:40;;;;;;;8.55;1.73;;;;;;;15.94;32.69;101670.13;6050767;28;20041;-71
2023/04/30 13:35:36;;;;;;;9.85;1.80;;;;;;;16.05;32.32;101693.09;6049836;28;20449;-73
2023/04/30 13:38:31;;;;;;;7.23;1.77;;;;;;;15.73;33.11;101676.81;6050548;28;20025;-71
2023/04/30 13:41:26;;;;;;;4.93;1.60;;;;;;;16.92;31.57;101671.44;6048859;28;20040;-72
2023/04/30 13:44:22;;;;;;;5.25;1.58;;;;;;;17.25;30.12;101667.81;6049927;28;20026;-72